Time;durP1;ratioP1;P1;durP2;ratioP2;P2;SDS_P1;SDS_P2;PMS_P1;PMS_P2;Temp;Humidity;BMP_temperature;BMP_pressure;BME280_temperature;BME280_humidity;BME280_pressure;Samples;Min_cycle;Max_cycle;Signal;HPM_P1;HPM_P2
2022/03/25 00:02:50;;;;;;;21.73;10.13;;;;;;;7.25;63.29;101643.53;10255796;28;20232;-69
2022/03/25 00:07:54;;;;;;;24.00;10.83;;;;;;;7.21;62.66;101639.09;10255267;28;20688;-70
2022/03/25 00:12:57;;;;;;;22.23;10.30;;;;;;;7.10;64.33;101643.13;10255768;28;20235;-71
2022/03/25 00:18:02;;;;;;;23.33;10.67;;;;;;;7.10;62.68;101646.59;10255828;28;20220;-72
2022/03/25 00:23:06;;;;;;;21.10;10.43;;;;;;;7.01;63.59;101641.19;10258613;28;20221;-69
2022/03/25 00:28:09;;;;;;;22.60;9.73;;;;;;;7.00;63.70;101632.59;10258908;28;20667;-70
2022/03/25 00:33:14;;;;;;;22.07;10.40;;;;;;;7.03;63.51;101644.69;10257316;28;20568;-68
2022/03/25 00:38:18;;;;;;;21.83;9.73;;;;;;;6.91;64.27;101624.63;10260085;29;20698;-73
2022/03/25 00:43:22;;;;;;;25.73;11.13;;;;;;;6.86;63.87;101620.19;10265229;28;20226;-70
2022/03/25 00:48:27;;;;;;;21.47;10.90;;;;;;;6.82;64.92;101628.66;10262718;29;20224;-71
2022/03/25 00:53:31;;;;;;;22.87;11.30;;;;;;;6.71;63.52;101620.66;10262742;29;20242;-72
2022/03/25 00:58:34;;;;;;;26.33;10.57;;;;;;;6.64;65.13;101621.31;10261798;28;20228;-73
2022/03/25 01:03:39;;;;;;;25.70;10.00;;;;;;;6.70;63.09;101618.03;10261532;28;20247;-71
2022/03/25 01:08:42;;;;;;;20.10;10.00;;;;;;;6.66;64.96;101617.09;10261437;28;20220;-74
2022/03/25 01:13:46;;;;;;;27.83;11.00;;;;;;;6.59;65.29;101622.06;10261437;29;20239;-73
2022/03/25 01:18:50;;;;;;;23.13;9.83;;;;;;;6.56;64.42;101622.84;10264226;28;20688;-72
2022/03/25 01:23:54;;;;;;;19.77;10.37;;;;;;;6.44;64.43;101621.63;10260854;28;20546;-71
2022/03/25 01:28:57;;;;;;;26.13;10.73;;;;;;;6.42;62.27;101621.59;10260665;28;20227;-71
2022/03/25 01:34:02;;;;;;;20.87;10.13;;;;;;;6.45;63.92;101616.56;10260658;28;20216;-72
2022/03/25 01:39:05;;;;;;;20.23;9.13;;;;;;;6.34;65.26;101623.09;10259967;29;20223;-73
2022/03/25 01:44:11;;;;;;;26.17;10.73;;;;;;;6.20;66.19;101623.53;10259940;28;20311;-73
2022/03/25 01:49:16;;;;;;;22.57;9.30;;;;;;;6.21;65.17;101618.47;10261763;28;20556;-74
2022/03/25 01:54:21;;;;;;;23.77;10.23;;;;;;;6.22;66.87;101630.50;10258492;28;20220;-72
2022/03/25 01:59:25;;;;;;;24.67;10.23;;;;;;;6.11;66.54;101624.16;10259474;28;20684;-72
2022/03/25 02:04:30;;;;;;;25.90;10.17;;;;;;;5.87;66.35;101622.63;10259118;29;20220;-70
2022/03/25 02:09:34;;;;;;;20.33;9.93;;;;;;;5.82;67.93;101625.00;10258951;29;20216;-69
2022/03/25 02:14:37;;;;;;;25.23;10.67;;;;;;;5.82;68.41;101632.72;10258937;28;20235;-69
2022/03/25 02:19:42;;;;;;;29.47;11.40;;;;;;;5.83;65.65;101632.81;10258703;29;20679;-69
2022/03/25 02:24:47;;;;;;;26.37;12.87;;;;;;;5.82;64.56;101640.47;10261011;28;20215;-73
2022/03/25 02:29:51;;;;;;;28.90;11.70;;;;;;;5.78;65.59;101631.78;10258343;29;20228;-71
2022/03/25 02:34:54;;;;;;;25.83;10.93;;;;;;;5.84;65.47;101636.28;10258006;29;20550;-70
2022/03/25 02:39:59;;;;;;;26.40;11.20;;;;;;;5.63;66.96;101633.91;10257869;28;20236;-71
2022/03/25 02:45:02;;;;;;;20.67;10.33;;;;;;;5.51;67.27;101623.22;10257878;29;20234;-71
2022/03/25 02:50:06;;;;;;;23.43;10.43;;;;;;;5.36;68.68;101627.03;10257546;29;20221;-72
2022/03/25 02:55:12;;;;;;;32.03;11.43;;;;;;;5.21;69.75;101631.72;10259288;29;20220;-75
2022/03/25 03:00:15;;;;;;;22.60;12.53;;;;;;;5.24;70.62;101632.69;10257190;29;20240;-71
2022/03/25 03:05:19;;;;;;;20.33;10.47;;;;;;;5.11;71.43;101639.97;10256779;28;20236;-71
2022/03/25 03:10:26;;;;;;;20.93;11.10;;;;;;;5.09;71.02;101651.91;10257188;29;20319;-72
2022/03/25 03:15:30;;;;;;;20.57;9.97;;;;;;;5.12;72.14;101650.31;10257482;28;20220;-71
2022/03/25 03:20:33;;;;;;;24.03;9.87;;;;;;;5.22;67.72;101644.63;10256975;28;20646;-71
2022/03/25 03:25:38;;;;;;;22.03;10.70;;;;;;;5.18;69.07;101665.94;10256736;28;20224;-76
2022/03/25 03:30:41;;;;;;;21.43;10.20;;;;;;;5.18;70.40;101657.31;10258908;29;20279;-73
2022/03/25 03:35:45;;;;;;;25.97;9.93;;;;;;;5.21;68.90;101657.44;10256414;28;20212;-71
2022/03/25 03:40:50;;;;;;;21.07;10.47;;;;;;;5.14;69.47;101665.78;10256234;28;20244;-72
2022/03/25 03:45:53;;;;;;;25.03;10.67;;;;;;;5.08;70.95;101665.56;10256122;29;20696;-73
2022/03/25 03:50:57;;;;;;;19.70;9.53;;;;;;;5.01;70.08;101669.66;10256186;29;20219;-70
2022/03/25 03:56:01;;;;;;;24.77;10.30;;;;;;;5.06;69.15;101668.09;10255906;28;20220;-70
2022/03/25 04:01:05;;;;;;;24.90;11.53;;;;;;;4.87;70.15;101677.75;10258387;28;20224;-74
2022/03/25 04:06:09;;;;;;;23.10;11.63;;;;;;;4.78;71.34;101672.28;10256315;28;20219;-72
2022/03/25 04:11:13;;;;;;;27.53;11.43;;;;;;;4.71;71.59;101678.91;10255749;29;20224;-69
2022/03/25 04:16:16;;;;;;;29.53;11.83;;;;;;;4.79;73.06;101681.72;10259121;28;20230;-71
2022/03/25 04:21:20;;;;;;;26.73;11.57;;;;;;;4.81;73.72;101680.09;10263136;29;20220;-72
2022/03/25 04:26:25;;;;;;;24.87;10.83;;;;;;;4.66;73.90;101676.16;10263018;29;20741;-71
2022/03/25 04:31:28;;;;;;;32.30;11.97;;;;;;;4.66;74.34;101678.75;10262892;29;20239;-68
2022/03/25 04:36:31;;;;;;;25.03;11.53;;;;;;;4.68;74.69;101681.34;10263891;29;20246;-68
2022/03/25 04:41:36;;;;;;;25.57;12.30;;;;;;;4.59;75.16;101679.34;10262244;28;20216;-72
2022/03/25 04:46:40;;;;;;;27.33;12.90;;;;;;;4.59;75.20;101684.50;10262274;28;20224;-71
2022/03/25 04:51:43;;;;;;;28.37;13.23;;;;;;;4.68;74.74;101686.50;10262336;29;20216;-71
2022/03/25 04:56:48;;;;;;;23.23;12.23;;;;;;;4.72;73.39;101685.78;10262455;29;20234;-72
2022/03/25 05:01:51;;;;;;;28.97;13.37;;;;;;;4.64;75.25;101693.22;10261320;28;20271;-69
2022/03/25 05:06:55;;;;;;;23.40;12.37;;;;;;;4.67;75.29;101695.94;10262292;28;20220;-71
2022/03/25 05:11:59;;;;;;;26.53;13.60;;;;;;;4.80;74.65;101693.78;10262500;29;20234;-68
2022/03/25 05:17:03;;;;;;;25.80;11.83;;;;;;;4.91;74.26;101703.59;10261317;28;20647;-72
2022/03/25 05:22:07;;;;;;;25.13;12.10;;;;;;;5.04;71.40;101694.63;10261208;29;20242;-70
2022/03/25 05:27:12;;;;;;;23.23;11.07;;;;;;;5.16;69.34;101693.31;10260478;28;20557;-70
2022/03/25 05:32:16;;;;;;;26.03;12.13;;;;;;;5.34;69.24;101685.31;10260566;29;20220;-70
2022/03/25 05:37:22;;;;;;;27.33;11.03;;;;;;;5.40;68.76;101696.66;10260729;28;20234;-69
2022/03/25 05:42:26;;;;;;;22.80;10.83;;;;;;;5.58;66.90;101693.81;10262691;29;20223;-70
2022/03/25 05:47:29;;;;;;;25.20;12.33;;;;;;;5.70;66.21;101699.34;10260448;29;20219;-71
2022/03/25 05:52:33;;;;;;;26.13;12.33;;;;;;;5.85;65.56;101699.81;10260116;29;20238;-69
2022/03/25 05:57:38;;;;;;;27.03;11.97;;;;;;;6.06;64.91;101697.91;10259712;28;20219;-70
2022/03/25 06:02:42;;;;;;;24.63;11.17;;;;;;;6.26;65.01;101701.94;10259394;28;20545;-70
2022/03/25 06:07:46;;;;;;;28.70;10.70;;;;;;;6.34;63.15;101702.16;10259461;29;20601;-71
2022/03/25 06:12:51;;;;;;;28.47;11.53;;;;;;;6.45;63.63;101700.75;10261459;29;20230;-71
2022/03/25 06:17:54;;;;;;;25.97;11.17;;;;;;;6.59;64.01;101702.88;10258839;29;20212;-75
2022/03/25 06:22:58;;;;;;;23.27;11.03;;;;;;;6.71;61.28;101694.59;10258570;29;20224;-71
2022/03/25 06:28:06;;;;;;;22.43;10.73;;;;;;;6.92;63.40;101693.44;10258318;29;20216;-72
2022/03/25 06:33:10;;;;;;;69.73;33.87;;;;;;;7.04;62.38;101695.47;10258669;29;20238;-70
2022/03/25 06:38:14;;;;;;;24.90;11.70;;;;;;;7.19;60.26;101695.00;10257346;28;20311;-69
2022/03/25 06:43:19;;;;;;;24.73;11.60;;;;;;;7.29;60.75;101699.53;10271820;28;20729;-67
2022/03/25 06:48:22;;;;;;;26.40;11.30;;;;;;;7.37;59.59;101698.88;10265070;28;20226;-71
2022/03/25 06:53:26;;;;;;;28.77;12.33;;;;;;;7.45;60.20;101699.09;10257383;28;20685;-74
2022/03/25 06:58:31;;;;;;;26.23;11.00;;;;;;;7.62;59.86;101697.75;10257590;29;20224;-72
2022/03/25 07:03:35;;;;;;;20.33;9.57;;;;;;;7.72;58.43;101691.97;10256860;29;20240;-72
2022/03/25 07:08:40;;;;;;;18.03;9.23;;;;;;;7.84;57.37;101697.41;10257400;28;20212;-70
2022/03/25 07:13:46;;;;;;;23.17;9.50;;;;;;;8.01;56.98;101699.53;10255871;28;20215;-71
2022/03/25 07:18:49;;;;;;;24.73;10.50;;;;;;;8.14;56.64;101711.00;10257435;29;20565;-72
2022/03/25 07:23:52;;;;;;;26.97;11.23;;;;;;;8.29;55.43;101711.38;10252201;28;20235;-73
2022/03/25 07:28:57;;;;;;;31.43;10.97;;;;;;;8.45;55.94;101704.78;9911867;28;10000410;-72
2022/03/25 07:34:00;;;;;;;24.17;10.47;;;;;;;8.64;56.47;101712.06;10253100;29;20694;-72
2022/03/25 07:39:05;;;;;;;25.83;11.70;;;;;;;8.87;55.02;101710.81;10253145;29;20216;-72
2022/03/25 07:44:09;;;;;;;24.70;11.07;;;;;;;8.94;55.66;101710.03;10252862;29;20228;-73
2022/03/25 07:49:13;;;;;;;30.73;11.83;;;;;;;9.04;54.93;101709.38;10257275;28;20231;-75
2022/03/25 07:54:16;;;;;;;31.63;11.30;;;;;;;9.27;54.82;101718.41;10261317;29;20220;-71
2022/03/25 07:59:21;;;;;;;25.27;11.97;;;;;;;9.42;54.96;101704.84;10260554;29;20605;-72
2022/03/25 08:04:24;;;;;;;25.93;11.70;;;;;;;9.57;53.39;101707.66;10260330;28;20243;-70
2022/03/25 08:09:28;;;;;;;31.57;11.60;;;;;;;9.53;53.94;101705.88;10260293;29;20315;-71
2022/03/25 08:14:34;;;;;;;27.57;12.87;;;;;;;9.74;53.48;101703.59;10260329;29;20228;-73
2022/03/25 08:19:37;;;;;;;30.13;12.03;;;;;;;9.95;53.16;101706.50;10262790;29;20226;-72
2022/03/25 08:30:04;;;;;;;30.20;11.10;;;;;;;10.38;53.03;101714.03;10259653;29;20592;-71
2022/03/25 08:35:08;;;;;;;25.80;11.83;;;;;;;10.59;52.83;101703.03;10259755;28;20247;-71
2022/03/25 08:40:12;;;;;;;27.93;10.87;;;;;;;10.75;52.51;101700.63;10259133;28;20223;-73
2022/03/25 08:45:18;;;;;;;20.77;10.33;;;;;;;10.96;52.15;101703.44;10258854;28;20670;-71
2022/03/25 08:50:22;;;;;;;23.97;10.40;;;;;;;11.01;51.95;101696.56;10259646;28;20307;-72
2022/03/25 08:55:26;;;;;;;104.60;50.93;;;;;;;11.23;51.67;101690.69;10262230;29;20705;-70
2022/03/25 09:00:31;;;;;;;26.47;11.43;;;;;;;11.50;50.55;101698.75;10257985;28;20240;-73
2022/03/25 09:05:35;;;;;;;26.00;10.50;;;;;;;11.65;49.91;101692.78;10258524;29;20240;-70
2022/03/25 09:10:38;;;;;;;23.90;10.50;;;;;;;12.01;49.87;101684.38;10258110;28;20291;-73
2022/03/25 09:15:43;;;;;;;29.00;11.33;;;;;;;12.37;49.67;101687.13;10258266;29;20616;-72
2022/03/25 09:20:46;;;;;;;23.67;10.37;;;;;;;12.44;48.29;101681.94;10258132;29;20228;-72
2022/03/25 09:25:49;;;;;;;25.97;11.67;;;;;;;12.88;47.88;101670.75;10280796;29;20557;-72
2022/03/25 09:30:55;;;;;;;21.63;12.07;;;;;;;13.72;45.47;101661.22;10257436;28;20224;-72
2022/03/25 09:35:58;;;;;;;26.43;11.27;;;;;;;14.07;43.99;101655.03;10257304;28;20200;-74
2022/03/25 09:41:05;;;;;;;23.70;11.97;;;;;;;14.47;43.37;101656.63;10256719;29;20218;-70
2022/03/25 09:46:10;;;;;;;22.97;10.63;;;;;;;15.08;42.36;101637.06;10257268;28;20196;-72
2022/03/25 09:51:14;;;;;;;21.87;11.07;;;;;;;15.74;42.23;101639.06;10256667;28;20341;-71
2022/03/25 09:56:18;;;;;;;19.87;10.00;;;;;;;16.34;40.19;101629.63;10259558;28;20196;-70
2022/03/25 10:01:22;;;;;;;21.73;11.23;;;;;;;17.17;38.94;101631.84;10256493;28;20237;-72
2022/03/25 10:06:26;;;;;;;22.50;9.80;;;;;;;17.58;36.58;101625.94;10256326;28;20204;-71
2022/03/25 10:11:31;;;;;;;18.57;9.03;;;;;;;17.90;37.04;101625.31;10255693;28;20236;-71
2022/03/25 10:16:36;;;;;;;17.57;9.13;;;;;;;18.58;36.54;101613.38;10255651;28;20583;-70
2022/03/25 10:21:51;;;;;;;21.10;9.40;;;;;;;19.36;35.57;101608.84;10255314;29;20577;-69
2022/03/25 10:27:04;;;;;;;20.75;9.10;;;;;;;19.73;35.67;101608.69;10260329;28;20366;-70
2022/03/25 10:32:11;;;;;;;21.73;11.02;;;;;;;19.96;34.76;101607.16;10254935;28;20199;-70
2022/03/25 10:37:15;;;;;;;17.73;10.07;;;;;;;19.75;34.40;101614.78;10255112;29;20291;-71
2022/03/25 10:42:22;;;;;;;20.17;10.50;;;;;;;20.15;34.09;101596.94;10254728;29;20246;-75
2022/03/25 10:47:28;;;;;;;21.55;10.95;;;;;;;20.62;33.76;101581.41;10254658;28;20196;-72
2022/03/25 10:52:34;;;;;;;22.77;12.37;;;;;;;20.96;33.72;101582.94;10254511;28;20258;-71
2022/03/25 10:57:47;;;;;;;22.33;11.10;;;;;;;20.95;33.35;101583.88;10258014;29;20588;-70
2022/03/25 11:02:56;;;;;;;23.00;11.15;;;;;;;21.10;33.39;101576.34;10253525;29;20236;-71
2022/03/25 11:08:01;;;;;;;21.23;11.18;;;;;;;21.86;32.47;101568.34;10254246;28;20235;-70
2022/03/25 11:13:06;;;;;;;21.73;11.18;;;;;;;22.01;31.88;101568.66;10253575;29;20226;-71
2022/03/25 11:18:12;;;;;;;26.55;12.18;;;;;;;22.30;31.30;101565.75;10253566;29;20204;-70
2022/03/25 11:23:22;;;;;;;23.17;12.50;;;;;;;21.91;32.01;101563.75;10252939;28;20232;-70
2022/03/25 11:28:30;;;;;;;24.73;12.00;;;;;;;23.05;31.15;101555.66;10257019;28;20534;-71
2022/03/25 11:34:07;;;;;;;22.42;12.55;;;;;;;23.57;28.54;101549.84;10255813;29;20757;-69
2022/03/25 11:39:24;;;;;;;23.42;12.60;;;;;;;23.54;29.80;101539.38;10256501;28;20227;-69
2022/03/25 11:44:29;;;;;;;20.83;11.38;;;;;;;24.60;29.45;101528.13;10216481;29;20256;-72
2022/03/25 11:49:36;;;;;;;;;;;;;;;25.09;29.08;101518.59;10217502;29;20110;-69
2022/03/25 11:54:40;;;;;;;;;;;;;;;25.53;26.86;101524.25;10217966;29;19922;-70
2022/03/25 11:59:47;;;;;;;;;;;;;;;25.75;27.75;101512.38;10220526;29;19993;-73
2022/03/25 12:04:51;;;;;;;;;;;;;;;25.95;27.77;101517.50;10255936;29;19973;-70
2022/03/25 12:09:54;;;;;;;;;;;;;;;25.19;25.98;101506.53;10256257;29;19929;-69
2022/03/25 12:15:10;;;;;;;;;;;;;;;26.01;26.99;101500.28;10256002;29;19926;-72
2022/03/25 12:20:14;;;;;;;;;;;;;;;25.73;26.53;101490.31;10255973;29;19930;-71
2022/03/25 12:25:19;;;;;;;;;;;;;;;26.44;25.99;101490.78;10257684;29;20237;-70
2022/03/25 12:30:22;;;;;;;;;;;;;;;26.77;25.22;101481.72;10256487;28;20345;-73
2022/03/25 12:35:29;;;;;;;;;;;;;;;25.54;26.19;101484.28;10256312;28;19938;-73
2022/03/25 12:40:33;;;;;;;;;;;;;;;25.10;26.73;101477.78;10262910;29;19937;-70
2022/03/25 12:45:38;;;;;;;;;;;;;;;24.76;27.35;101469.84;10262757;29;20305;-72
2022/03/25 12:50:46;;;;;;;;;;;;;;;24.71;27.56;101478.00;10262602;28;20015;-70
2022/03/25 12:55:49;;;;;;;;;;;;;;;25.85;25.22;101460.38;10266361;29;20260;-75
2022/03/25 13:00:53;;;;;;;;;;;;;;;27.64;24.21;101459.47;10261846;29;19938;-73
2022/03/25 13:05:59;;;;;;;;;;;;;;;25.90;25.96;101465.47;10261587;29;19932;-72
2022/03/25 13:11:02;;;;;;;;;;;;;;;23.51;27.13;101460.84;10261678;29;19941;-73
2022/03/25 13:16:06;;;;;;;;;;;;;;;23.67;28.45;101461.00;10261710;28;20329;-69
2022/03/25 13:21:11;;;;;;;;;;;;;;;23.55;27.50;101458.91;10261643;29;20021;-71
2022/03/25 13:26:15;;;;;;;;;;;;;;;23.20;27.51;101464.91;10265374;29;20349;-74
2022/03/25 13:31:18;;;;;;;;;;;;;;;21.76;28.11;101462.94;10260998;29;20013;-71
2022/03/25 13:36:28;;;;;;;;;;;;;;;22.24;28.40;101449.59;10261385;28;20353;-70
2022/03/25 13:41:34;;;;;;;;;;;;;;;22.13;28.06;101457.09;10261168;29;20077;-71
2022/03/25 13:46:38;;;;;;;;;;;;;;;21.77;28.11;101448.84;10260706;28;19922;-71
2022/03/25 13:51:43;;;;;;;;;;;;;;;21.81;28.70;101449.59;10262499;28;20034;-72
2022/03/25 13:56:49;;;;;;;14.60;6.85;;;;;;;21.65;27.65;101444.00;10260866;28;20012;-72
2022/03/25 14:01:53;;;;;;;13.50;5.93;;;;;;;21.86;27.08;101442.34;10259217;29;20248;-72
2022/03/25 14:06:59;;;;;;;14.38;6.50;;;;;;;21.58;27.65;101447.78;10259113;29;20684;-72
2022/03/25 14:12:14;;;;;;;20.33;6.75;;;;;;;21.31;28.63;101442.69;10258981;29;20207;-71
2022/03/25 14:17:18;;;;;;;11.95;6.60;;;;;;;20.94;28.84;101435.19;10259298;29;20299;-71
2022/03/25 14:22:22;;;;;;;14.07;6.10;;;;;;;21.00;28.32;101420.94;10261094;29;20200;-71
2022/03/25 14:27:26;;;;;;;12.70;6.10;;;;;;;21.14;27.82;101423.94;10258341;28;20207;-71
2022/03/25 14:32:29;;;;;;;12.88;5.38;;;;;;;20.90;25.93;101423.00;10258118;29;20188;-72
2022/03/25 14:37:34;;;;;;;10.50;5.28;;;;;;;20.60;26.85;101408.25;10258505;29;20270;-73
2022/03/25 14:42:37;;;;;;;9.80;5.60;;;;;;;20.05;27.43;101409.16;10257647;29;20275;-72
2022/03/25 14:47:41;;;;;;;13.30;7.32;;;;;;;19.33;28.53;101407.03;10257920;29;20667;-72
2022/03/25 14:52:46;;;;;;;13.35;6.40;;;;;;;18.93;28.09;101406.38;10259167;29;20196;-70
2022/03/25 14:57:51;;;;;;;11.98;5.40;;;;;;;18.33;28.76;101414.09;10257185;28;20219;-67
2022/03/25 15:02:55;;;;;;;11.00;5.30;;;;;;;18.08;29.52;101405.09;10256558;29;20241;-67
2022/03/25 15:08:00;;;;;;;11.60;6.20;;;;;;;17.85;29.64;101410.00;10257107;29;20283;-67
2022/03/25 15:13:03;;;;;;;12.05;5.50;;;;;;;17.52;29.29;101405.50;10256578;29;20220;-70
2022/03/25 15:18:07;;;;;;;12.20;6.37;;;;;;;17.18;29.67;101407.09;10256710;29;20220;-73
2022/03/25 15:23:11;;;;;;;13.43;5.33;;;;;;;17.34;29.70;101401.47;10256056;29;20350;-70
2022/03/25 15:28:14;;;;;;;12.70;5.10;;;;;;;17.18;30.14;101396.59;10253896;28;20220;-70
2022/03/25 15:38:40;;;;;;;12.27;6.27;;;;;;;17.71;30.07;101413.84;10254960;28;20220;-69
2022/03/25 15:43:43;;;;;;;13.27;6.10;;;;;;;18.25;29.54;101402.91;10254702;28;20224;-68
2022/03/25 15:48:49;;;;;;;12.98;5.60;;;;;;;18.27;29.10;101395.81;10255806;28;20216;-69
2022/03/25 15:53:54;;;;;;;25.30;15.47;;;;;;;18.34;29.08;101400.03;10255129;28;20226;-72
2022/03/25 15:58:57;;;;;;;13.98;6.10;;;;;;;17.99;28.93;101400.06;10251622;29;20216;-69
2022/03/25 16:04:01;;;;;;;15.60;6.37;;;;;;;17.57;29.46;101400.19;10254217;29;20242;-67
2022/03/25 16:09:05;;;;;;;15.13;6.40;;;;;;;17.09;29.95;101404.63;10253921;29;20219;-65
2022/03/25 16:14:26;;;;;;;13.83;6.67;;;;;;;16.75;31.02;101407.06;10259982;28;20226;-67
2022/03/25 16:19:35;;;;;;;16.40;8.73;;;;;;;16.48;31.37;101399.66;10263189;28;20310;-68
2022/03/25 16:24:42;;;;;;;13.73;7.10;;;;;;;16.15;33.12;101408.09;10259977;28;20312;-67
2022/03/25 16:29:46;;;;;;;18.40;8.77;;;;;;;15.98;32.60;101390.00;9932237;28;10000975;-68
2022/03/25 16:34:53;;;;;;;25.60;12.13;;;;;;;15.94;33.26;101398.81;10259078;29;20812;-72
2022/03/25 16:39:57;;;;;;;18.13;9.40;;;;;;;15.68;33.99;101394.84;10259227;28;20603;-70
2022/03/25 16:45:01;;;;;;;20.97;11.20;;;;;;;15.45;34.84;101402.13;10258607;28;20255;-74
2022/03/25 16:50:05;;;;;;;21.90;10.67;;;;;;;15.23;35.61;101398.91;10262943;28;20224;-72
2022/03/25 16:55:12;;;;;;;29.67;11.87;;;;;;;15.24;36.01;101415.47;10259130;28;20234;-72
2022/03/25 17:00:20;;;;;;;26.43;13.43;;;;;;;15.08;37.02;101417.41;10259448;28;20230;-71
2022/03/25 17:05:23;;;;;;;28.13;13.40;;;;;;;14.67;38.58;101417.81;10258760;28;20240;-69
2022/03/25 17:10:28;;;;;;;32.93;13.83;;;;;;;14.34;39.76;101423.34;10259199;28;20224;-67
2022/03/25 17:15:31;;;;;;;27.37;12.97;;;;;;;14.20;41.08;101432.16;10257967;28;20312;-59
2022/03/25 17:20:35;;;;;;;28.40;14.40;;;;;;;14.15;41.50;101423.50;10256088;28;20241;-63
2022/03/25 17:25:41;;;;;;;25.20;14.40;;;;;;;13.99;41.54;101427.09;10256516;28;20230;-64
2022/03/25 17:30:48;;;;;;;29.73;14.13;;;;;;;13.85;41.98;101427.19;10257317;28;20236;-62
2022/03/25 17:35:51;;;;;;;28.17;13.67;;;;;;;13.81;41.89;101430.69;10256849;28;20228;-63
2022/03/25 17:40:56;;;;;;;26.13;14.00;;;;;;;13.80;41.84;101429.81;10256531;28;20252;-62
2022/03/25 17:46:00;;;;;;;32.43;16.13;;;;;;;13.77;42.17;101432.44;10257006;28;20228;-63
2022/03/25 17:51:05;;;;;;;28.90;14.30;;;;;;;13.61;42.62;101429.94;10256364;28;20248;-62
2022/03/25 17:56:10;;;;;;;27.97;13.67;;;;;;;13.46;43.41;101432.63;10256702;28;20206;-62
2022/03/25 18:01:13;;;;;;;30.13;15.07;;;;;;;13.50;43.39;101439.53;10256002;28;20220;-63
2022/03/25 18:06:18;;;;;;;24.10;13.53;;;;;;;13.39;43.74;101444.81;10255853;28;20240;-63
2022/03/25 18:11:22;;;;;;;31.27;13.77;;;;;;;13.30;44.04;101447.47;10255901;28;20230;-61
2022/03/25 18:16:28;;;;;;;35.13;14.23;;;;;;;13.42;43.97;101447.41;10255371;28;20231;-62
2022/03/25 18:21:31;;;;;;;36.70;14.87;;;;;;;13.35;44.65;101448.31;10255468;29;20215;-61
2022/03/25 18:26:36;;;;;;;36.40;18.83;;;;;;;13.20;45.06;101452.72;10255264;28;20290;-62
2022/03/25 18:31:40;;;;;;;28.07;15.63;;;;;;;13.05;45.86;101458.81;10254891;28;20230;-61
2022/03/25 18:36:43;;;;;;;30.97;16.57;;;;;;;13.07;45.90;101459.69;10254035;28;20528;-62
2022/03/25 18:41:48;;;;;;;33.13;15.27;;;;;;;12.93;46.63;101463.16;10254965;28;20287;-62
2022/03/25 18:46:51;;;;;;;36.87;16.57;;;;;;;12.64;48.06;101458.00;10254224;29;20746;-64
2022/03/25 18:51:55;;;;;;;33.27;18.90;;;;;;;12.63;47.35;101464.09;10254595;29;20579;-63
2022/03/25 18:56:59;;;;;;;31.57;14.43;;;;;;;12.66;46.40;101449.34;10254292;29;20642;-63
2022/03/25 19:02:05;;;;;;;35.57;16.23;;;;;;;12.46;47.60;101455.41;10255012;28;20243;-65
2022/03/25 19:07:08;;;;;;;37.80;16.27;;;;;;;12.19;49.21;101453.66;10254737;29;20227;-64
2022/03/25 19:12:14;;;;;;;43.67;16.40;;;;;;;12.18;49.08;101448.47;10255795;29;20219;-65
2022/03/25 19:17:18;;;;;;;40.60;16.83;;;;;;;11.92;50.29;101452.75;10256556;28;20216;-66
2022/03/25 19:22:21;;;;;;;37.33;16.27;;;;;;;11.88;50.68;101458.81;10256559;29;20564;-63
2022/03/25 19:27:26;;;;;;;36.07;16.33;;;;;;;11.92;50.48;101460.56;10256354;29;20558;-67
2022/03/25 19:32:29;;;;;;;38.10;17.23;;;;;;;12.04;49.91;101456.25;10256173;28;20310;-65
2022/03/25 19:37:33;;;;;;;31.17;15.53;;;;;;;12.09;48.96;101453.66;10255547;29;20228;-61
2022/03/25 19:42:38;;;;;;;37.83;16.73;;;;;;;11.83;50.88;101460.53;10255988;29;20224;-59
2022/03/25 19:47:41;;;;;;;34.80;16.23;;;;;;;11.86;50.97;101466.63;10265657;28;20570;-65
2022/03/25 19:52:44;;;;;;;33.23;16.50;;;;;;;11.68;52.09;101473.50;10269120;28;20318;-59
2022/03/25 19:57:50;;;;;;;38.40;16.70;;;;;;;11.87;50.47;101468.38;10269038;28;20682;-65
2022/03/25 20:02:53;;;;;;;34.03;16.00;;;;;;;11.89;51.29;101461.41;10268624;28;20236;-64
2022/03/25 20:07:56;;;;;;;41.97;15.63;;;;;;;11.60;52.76;101463.03;10229116;29;20343;-63
2022/03/25 20:13:01;;;;;;;42.30;17.27;;;;;;;11.79;50.76;101458.78;10231254;29;20251;-62
2022/03/25 20:18:05;;;;;;;35.77;18.57;;;;;;;11.82;51.03;101453.63;10268638;28;20358;-62
2022/03/25 20:23:09;;;;;;;35.50;17.30;;;;;;;11.82;50.83;101454.47;10268851;28;20315;-60
2022/03/25 20:28:14;;;;;;;41.00;18.83;;;;;;;11.79;50.81;101446.66;10268323;28;20232;-63
2022/03/25 20:33:17;;;;;;;45.13;19.83;;;;;;;11.90;50.59;101442.34;10268572;28;20303;-64
2022/03/25 20:38:20;;;;;;;41.50;19.77;;;;;;;11.93;50.15;101439.75;10266946;28;20366;-62
2022/03/25 20:43:25;;;;;;;37.87;18.27;;;;;;;11.87;50.66;101436.28;10268348;28;20226;-66
2022/03/25 20:48:28;;;;;;;39.10;18.87;;;;;;;11.91;50.38;101432.84;10268168;28;20222;-63
2022/03/25 20:53:32;;;;;;;35.17;19.00;;;;;;;11.88;50.69;101422.41;10268273;28;20293;-64
2022/03/25 20:58:37;;;;;;;57.23;20.30;;;;;;;11.87;50.56;101426.75;10280260;28;20216;-65
2022/03/25 21:03:40;;;;;;;41.07;19.67;;;;;;;11.84;50.75;101434.53;10301624;28;20531;-63
2022/03/25 21:08:43;;;;;;;42.40;19.33;;;;;;;11.82;50.96;101415.44;10301319;28;20314;-60
2022/03/25 21:13:50;;;;;;;40.70;19.97;;;;;;;11.83;51.15;101405.91;10284813;28;20224;-64
2022/03/25 21:18:53;;;;;;;37.30;18.83;;;;;;;11.90;51.39;101408.53;10261025;28;20260;-62
2022/03/25 21:23:56;;;;;;;37.03;18.67;;;;;;;11.74;51.96;101404.16;10261141;28;20216;-63
2022/03/25 21:29:01;;;;;;;43.20;18.90;;;;;;;11.74;51.76;101403.28;10260263;28;20335;-63
2022/03/25 21:34:04;;;;;;;39.70;19.73;;;;;;;11.75;51.92;101407.66;9915391;28;10000265;-61
2022/03/25 21:39:08;;;;;;;45.03;19.60;;;;;;;11.55;52.92;101410.16;10257522;28;20220;-62
2022/03/25 21:44:13;;;;;;;38.93;19.57;;;;;;;11.60;52.78;101411.91;10257085;28;20216;-62
2022/03/25 21:49:16;;;;;;;46.97;23.07;;;;;;;11.57;53.52;101405.84;10248627;29;20224;-62
2022/03/25 21:54:20;;;;;;;37.80;18.73;;;;;;;11.55;53.63;101403.22;10256757;28;20215;-61
2022/03/25 21:59:24;;;;;;;39.97;18.17;;;;;;;11.60;53.38;101395.44;10259535;28;20235;-63
2022/03/25 22:04:28;;;;;;;39.63;18.53;;;;;;;11.43;53.92;101397.13;10259629;29;20279;-61
2022/03/25 22:09:31;;;;;;;36.50;16.93;;;;;;;11.42;54.50;101390.19;10257991;28;20615;-61
2022/03/25 22:14:38;;;;;;;45.90;18.73;;;;;;;11.35;54.73;101384.13;10259274;28;20244;-64
2022/03/25 22:19:42;;;;;;;38.63;16.93;;;;;;;11.28;55.04;101384.97;10258957;28;20206;-63
2022/03/25 22:24:45;;;;;;;37.80;16.97;;;;;;;11.27;55.20;101385.81;10258934;28;20204;-61
2022/03/25 22:29:49;;;;;;;33.83;16.43;;;;;;;11.35;55.22;101386.72;10258509;28;20239;-61
2022/03/25 22:34:53;;;;;;;32.80;16.63;;;;;;;11.18;56.78;101379.72;10258435;28;20192;-63
2022/03/25 22:39:57;;;;;;;37.43;17.23;;;;;;;11.17;56.28;101385.75;10258352;28;20196;-65
2022/03/25 22:45:01;;;;;;;101.93;57.87;;;;;;;10.98;57.15;101376.16;10257867;28;20660;-62
2022/03/25 22:50:05;;;;;;;44.47;18.07;;;;;;;10.92;57.36;101368.34;10257047;28;20228;-64
2022/03/25 22:55:10;;;;;;;34.47;17.10;;;;;;;10.89;57.62;101382.19;10257687;28;20196;-62
2022/03/25 23:00:52;;;;;;;36.20;18.70;;;;;;;10.95;57.87;101363.16;10257507;28;20200;-63
2022/03/25 23:05:56;;;;;;;32.13;17.77;;;;;;;10.79;58.45;101370.00;10228351;28;20231;-62
2022/03/25 23:10:59;;;;;;;38.23;19.17;;;;;;;10.79;57.88;101362.22;10257097;28;20363;-62
2022/03/25 23:16:05;;;;;;;39.70;19.17;;;;;;;10.65;58.51;101361.28;10256998;28;20200;-64
2022/03/25 23:21:08;;;;;;;43.30;20.47;;;;;;;10.45;59.54;101362.91;10256617;28;20192;-62